sensor_id;sensor_type;location;lat;lon;timestamp;pressure;altitude;pressure_sealevel;temperature;humidity
21185;BME280;18176;49.502;11.754;2023-02-13T00:01:48;98976.69;;;3.80;82.57
21185;BME280;18176;49.502;11.754;2023-02-13T00:05:48;98986.59;;;3.86;82.42
21185;BME280;18176;49.502;11.754;2023-02-13T00:09:51;98991.03;;;3.95;82.56
21185;BME280;18176;49.502;11.754;2023-02-13T00:13:51;98976.94;;;4.05;82.06
21185;BME280;18176;49.502;11.754;2023-02-13T00:17:51;98984.13;;;4.13;82.27
21185;BME280;18176;49.502;11.754;2023-02-13T00:21:51;98970.88;;;4.05;82.58
21185;BME280;18176;49.502;11.754;2023-02-13T00:25:54;98981.50;;;4.13;82.71
21185;BME280;18176;49.502;11.754;2023-02-13T00:29:54;98980.81;;;4.20;82.40
21185;BME280;18176;49.502;11.754;2023-02-13T00:33:57;98970.16;;;4.22;81.97
21185;BME280;18176;49.502;11.754;2023-02-13T00:37:57;98985.47;;;4.36;81.52
21185;BME280;18176;49.502;11.754;2023-02-13T00:42:00;98983.84;;;4.25;81.68
21185;BME280;18176;49.502;11.754;2023-02-13T00:46:00;98962.19;;;4.14;81.36
21185;BME280;18176;49.502;11.754;2023-02-13T00:50:01;98975.56;;;4.30;80.97
21185;BME280;18176;49.502;11.754;2023-02-13T00:54:01;98966.44;;;4.24;81.80
21185;BME280;18176;49.502;11.754;2023-02-13T00:58:04;98974.47;;;4.23;82.44
21185;BME280;18176;49.502;11.754;2023-02-13T01:02:05;98976.66;;;4.37;82.37
21185;BME280;18176;49.502;11.754;2023-02-13T01:06:06;98971.09;;;4.40;82.59
21185;BME280;18176;49.502;11.754;2023-02-13T01:10:07;98986.00;;;4.49;82.69
21185;BME280;18176;49.502;11.754;2023-02-13T01:14:09;98983.69;;;4.46;83.13
21185;BME280;18176;49.502;11.754;2023-02-13T01:18:12;98993.19;;;4.47;83.29
21185;BME280;18176;49.502;11.754;2023-02-13T01:22:13;98970.28;;;4.40;83.15
21185;BME280;18176;49.502;11.754;2023-02-13T01:26:17;98989.25;;;4.70;82.88
21185;BME280;18176;49.502;11.754;2023-02-13T01:30:22;98991.78;;;4.72;83.01
21185;BME280;18176;49.502;11.754;2023-02-13T01:34:24;98967.06;;;4.65;83.02
21185;BME280;18176;49.502;11.754;2023-02-13T01:38:25;98949.13;;;4.51;82.88
21185;BME280;18176;49.502;11.754;2023-02-13T01:42:28;98967.81;;;4.75;82.46
21185;BME280;18176;49.502;11.754;2023-02-13T01:46:36;98967.19;;;4.54;82.94
21185;BME280;18176;49.502;11.754;2023-02-13T01:50:46;98962.94;;;4.43;82.94
21185;BME280;18176;49.502;11.754;2023-02-13T01:54:47;98947.88;;;4.45;82.35
21185;BME280;18176;49.502;11.754;2023-02-13T01:58:51;98958.97;;;4.39;81.95
21185;BME280;18176;49.502;11.754;2023-02-13T02:03:01;98962.41;;;4.40;81.48
21185;BME280;18176;49.502;11.754;2023-02-13T02:07:13;98950.44;;;4.08;81.68
21185;BME280;18176;49.502;11.754;2023-02-13T02:11:24;98964.50;;;4.17;82.15
21185;BME280;18176;49.502;11.754;2023-02-13T02:15:26;98949.59;;;4.17;82.03
21185;BME280;18176;49.502;11.754;2023-02-13T02:19:41;98970.16;;;4.22;82.63
21185;BME280;18176;49.502;11.754;2023-02-13T02:24:22;98950.00;;;4.13;82.52
21185;BME280;18176;49.502;11.754;2023-02-13T02:28:56;98980.22;;;4.36;82.43
21185;BME280;18176;49.502;11.754;2023-02-13T02:33:28;98976.66;;;4.37;82.49
21185;BME280;18176;49.502;11.754;2023-02-13T02:37:59;98971.66;;;4.34;82.32
21185;BME280;18176;49.502;11.754;2023-02-13T02:42:16;98874.00;;;3.75;82.04
21185;BME280;18176;49.502;11.754;2023-02-13T02:46:28;98966.25;;;4.45;81.50
21185;BME280;18176;49.502;11.754;2023-02-13T02:50:43;98966.41;;;4.44;81.69
21185;BME280;18176;49.502;11.754;2023-02-13T02:54:48;98953.03;;;4.37;81.59
21185;BME280;18176;49.502;11.754;2023-02-13T02:59:11;98947.09;;;4.35;82.03
21185;BME280;18176;49.502;11.754;2023-02-13T03:03:29;98952.03;;;4.38;81.71
21185;BME280;18176;49.502;11.754;2023-02-13T03:07:45;98935.25;;;4.12;81.99
21185;BME280;18176;49.502;11.754;2023-02-13T03:11:50;98963.97;;;4.23;82.25
21185;BME280;18176;49.502;11.754;2023-02-13T03:16:04;98962.84;;;4.16;82.05
21185;BME280;18176;49.502;11.754;2023-02-13T03:20:32;98954.31;;;4.14;82.34
21185;BME280;18176;49.502;11.754;2023-02-13T03:25:06;98950.16;;;4.02;82.45
21185;BME280;18176;49.502;11.754;2023-02-13T03:29:20;98962.84;;;4.16;82.42
21185;BME280;18176;49.502;11.754;2023-02-13T03:33:53;98954.00;;;4.17;82.08
21185;BME280;18176;49.502;11.754;2023-02-13T03:38:04;98967.00;;;4.09;81.95
21185;BME280;18176;49.502;11.754;2023-02-13T03:42:17;98948.66;;;3.90;82.87
21185;BME280;18176;49.502;11.754;2023-02-13T03:46:21;98968.09;;;3.97;83.44
21185;BME280;18176;49.502;11.754;2023-02-13T03:50:26;98970.03;;;3.95;83.38
21185;BME280;18176;49.502;11.754;2023-02-13T03:54:37;98920.50;;;3.53;83.50
21185;BME280;18176;49.502;11.754;2023-02-13T03:58:58;98974.75;;;3.91;83.05
21185;BME280;18176;49.502;11.754;2023-02-13T04:03:22;98983.28;;;3.74;83.73
21185;BME280;18176;49.502;11.754;2023-02-13T04:07:24;98980.00;;;3.82;83.75
21185;BME280;18176;49.502;11.754;2023-02-13T04:11:36;98983.44;;;3.92;83.43
21185;BME280;18176;49.502;11.754;2023-02-13T04:15:49;98976.81;;;3.88;83.41
21185;BME280;18176;49.502;11.754;2023-02-13T04:19:52;98956.25;;;3.74;83.80
21185;BME280;18176;49.502;11.754;2023-02-13T04:23:52;98970.31;;;3.73;84.20
21185;BME280;18176;49.502;11.754;2023-02-13T04:27:52;98935.25;;;3.35;84.52
21185;BME280;18176;49.502;11.754;2023-02-13T04:31:55;98958.16;;;3.43;85.08
21185;BME280;18176;49.502;11.754;2023-02-13T04:35:55;98951.56;;;3.68;84.15
21185;BME280;18176;49.502;11.754;2023-02-13T04:39:55;98959.81;;;3.63;84.19
21185;BME280;18176;49.502;11.754;2023-02-13T04:43:56;98966.44;;;3.58;84.12
21185;BME280;18176;49.502;11.754;2023-02-13T04:47:59;98952.63;;;3.55;84.00
21185;BME280;18176;49.502;11.754;2023-02-13T04:51:59;98930.81;;;3.45;83.88
21185;BME280;18176;49.502;11.754;2023-02-13T04:55:59;98950.16;;;3.83;82.97
21185;BME280;18176;49.502;11.754;2023-02-13T05:00:00;98920.09;;;3.58;83.32
21185;BME280;18176;49.502;11.754;2023-02-13T05:04:03;98891.34;;;3.18;83.72
21185;BME280;18176;49.502;11.754;2023-02-13T05:08:08;98968.66;;;3.72;83.55
21185;BME280;18176;49.502;11.754;2023-02-13T05:12:08;98968.09;;;3.87;83.22
21185;BME280;18176;49.502;11.754;2023-02-13T05:16:08;98960.94;;;3.61;83.84
21185;BME280;18176;49.502;11.754;2023-02-13T05:20:14;98971.69;;;3.58;83.88
21185;BME280;18176;49.502;11.754;2023-02-13T05:24:14;98973.34;;;3.59;84.07
21185;BME280;18176;49.502;11.754;2023-02-13T05:28:16;98951.00;;;3.54;83.86
21185;BME280;18176;49.502;11.754;2023-02-13T05:32:29;98979.53;;;3.58;83.79
21185;BME280;18176;49.502;11.754;2023-02-13T05:36:32;98974.69;;;3.43;84.03
21185;BME280;18176;49.502;11.754;2023-02-13T05:40:32;98968.34;;;3.46;84.22
21185;BME280;18176;49.502;11.754;2023-02-13T05:44:36;98985.19;;;3.53;84.16
21185;BME280;18176;49.502;11.754;2023-02-13T05:48:36;98990.72;;;3.60;83.58
21185;BME280;18176;49.502;11.754;2023-02-13T05:52:40;98986.59;;;3.76;82.95
21185;BME280;18176;49.502;11.754;2023-02-13T05:56:40;98983.44;;;3.92;82.12
21185;BME280;18176;49.502;11.754;2023-02-13T06:00:41;98982.22;;;3.96;81.95
21185;BME280;18176;49.502;11.754;2023-02-13T06:04:41;98981.50;;;4.03;81.65
21185;BME280;18176;49.502;11.754;2023-02-13T06:08:43;98969.22;;;4.04;81.02
21185;BME280;18176;49.502;11.754;2023-02-13T06:12:44;98880.06;;;3.46;80.91
21185;BME280;18176;49.502;11.754;2023-02-13T06:16:44;98981.75;;;4.10;81.05
21185;BME280;18176;49.502;11.754;2023-02-13T06:20:44;98942.19;;;3.75;80.87
21185;BME280;18176;49.502;11.754;2023-02-13T06:24:47;99010.09;;;4.16;81.08
21185;BME280;18176;49.502;11.754;2023-02-13T06:28:47;99013.41;;;4.28;80.43
21185;BME280;18176;49.502;11.754;2023-02-13T06:32:48;99020.84;;;4.22;80.25
21185;BME280;18176;49.502;11.754;2023-02-13T06:36:49;99011.47;;;4.30;80.82
21185;BME280;18176;49.502;11.754;2023-02-13T06:40:52;99001.50;;;4.33;80.03
21185;BME280;18176;49.502;11.754;2023-02-13T06:44:52;99020.59;;;4.35;80.17
21185;BME280;18176;49.502;11.754;2023-02-13T06:48:53;99017.78;;;4.46;79.84
21185;BME280;18176;49.502;11.754;2023-02-13T06:52:53;99018.22;;;4.51;79.57
21185;BME280;18176;49.502;11.754;2023-02-13T06:56:57;99023.28;;;4.62;79.14
21185;BME280;18176;49.502;11.754;2023-02-13T07:00:57;99031.00;;;4.83;78.60
21185;BME280;18176;49.502;11.754;2023-02-13T07:04:57;99030.59;;;4.68;78.36
21185;BME280;18176;49.502;11.754;2023-02-13T07:08:59;99026.59;;;4.64;78.16
21185;BME280;18176;49.502;11.754;2023-02-13T07:13:06;99032.97;;;4.62;78.54
21185;BME280;18176;49.502;11.754;2023-02-13T07:17:10;99006.97;;;4.68;78.79
21185;BME280;18176;49.502;11.754;2023-02-13T07:21:11;99028.72;;;4.97;77.67
21185;BME280;18176;49.502;11.754;2023-02-13T07:25:12;99029.97;;;4.93;77.48
21185;BME280;18176;49.502;11.754;2023-02-13T07:29:14;99026.09;;;4.97;77.54
21185;BME280;18176;49.502;11.754;2023-02-13T07:33:15;99024.47;;;5.24;76.98
21185;BME280;18176;49.502;11.754;2023-02-13T07:37:15;99017.00;;;5.29;75.82
21185;BME280;18176;49.502;11.754;2023-02-13T07:41:42;98962.16;;;5.07;75.41
21185;BME280;18176;49.502;11.754;2023-02-13T07:56:16;99037.13;;;5.92;73.89
21185;BME280;18176;49.502;11.754;2023-02-13T08:00:20;99030.38;;;6.07;73.05
21185;BME280;18176;49.502;11.754;2023-02-13T08:04:21;99039.63;;;6.29;72.32
21185;BME280;18176;49.502;11.754;2023-02-13T08:08:22;99039.91;;;6.44;71.73
21185;BME280;18176;49.502;11.754;2023-02-13T08:12:26;99042.53;;;6.44;71.68
21185;BME280;18176;49.502;11.754;2023-02-13T08:16:27;99045.22;;;6.52;71.29
21185;BME280;18176;49.502;11.754;2023-02-13T08:20:27;99046.09;;;6.78;70.36
21185;BME280;18176;49.502;11.754;2023-02-13T08:24:28;99027.91;;;6.67;70.32
21185;BME280;18176;49.502;11.754;2023-02-13T08:28:32;99037.91;;;6.81;69.89
21185;BME280;18176;49.502;11.754;2023-02-13T08:32:32;99039.53;;;7.07;68.88
21185;BME280;18176;49.502;11.754;2023-02-13T08:36:49;99042.13;;;7.25;68.33
21185;BME280;18176;49.502;11.754;2023-02-13T08:40:50;99037.44;;;7.53;68.15
21185;BME280;18176;49.502;11.754;2023-02-13T08:44:54;99042.44;;;7.30;68.25
21185;BME280;18176;49.502;11.754;2023-02-13T08:48:55;99039.16;;;7.28;67.82
21185;BME280;18176;49.502;11.754;2023-02-13T08:52:57;99040.81;;;7.29;67.72
21185;BME280;18176;49.502;11.754;2023-02-13T08:56:57;99042.94;;;7.59;67.91
21185;BME280;18176;49.502;11.754;2023-02-13T09:01:05;99036.75;;;7.85;67.93
21185;BME280;18176;49.502;11.754;2023-02-13T09:05:06;99032.47;;;8.00;67.02
21185;BME280;18176;49.502;11.754;2023-02-13T09:09:07;99029.91;;;8.32;66.43
21185;BME280;18176;49.502;11.754;2023-02-13T09:13:09;99014.22;;;8.46;66.48
21185;BME280;18176;49.502;11.754;2023-02-13T09:17:13;99020.66;;;8.76;65.16
21185;BME280;18176;49.502;11.754;2023-02-13T09:21:18;99016.28;;;9.07;64.08
21185;BME280;18176;49.502;11.754;2023-02-13T09:25:19;99013.88;;;9.37;63.17
21185;BME280;18176;49.502;11.754;2023-02-13T09:29:22;98983.81;;;9.30;61.95
21185;BME280;18176;49.502;11.754;2023-02-13T09:33:29;99015.03;;;9.73;60.91
21185;BME280;18176;49.502;11.754;2023-02-13T09:37:31;99022.19;;;9.95;60.79
21185;BME280;18176;49.502;11.754;2023-02-13T09:41:35;99016.22;;;10.01;60.53
21185;BME280;18176;49.502;11.754;2023-02-13T09:45:38;99017.81;;;10.10;59.64
21185;BME280;18176;49.502;11.754;2023-02-13T09:49:50;99022.13;;;10.34;60.14
21185;BME280;18176;49.502;11.754;2023-02-13T09:53:56;99030.63;;;10.67;58.22
21185;BME280;18176;49.502;11.754;2023-02-13T09:58:06;99028.50;;;10.99;57.96
21185;BME280;18176;49.502;11.754;2023-02-13T10:02:42;99041.59;;;11.59;56.33
21185;BME280;18176;49.502;11.754;2023-02-13T10:07:01;99006.53;;;11.64;56.05
21185;BME280;18176;49.502;11.754;2023-02-13T10:11:26;99010.31;;;11.40;55.77
21185;BME280;18176;49.502;11.754;2023-02-13T10:15:39;99029.31;;;11.58;56.42
21185;BME280;18176;49.502;11.754;2023-02-13T10:19:49;99031.56;;;11.69;56.39
21185;BME280;18176;49.502;11.754;2023-02-13T10:24:01;99028.03;;;11.83;57.13
21185;BME280;18176;49.502;11.754;2023-02-13T10:28:12;99024.63;;;12.46;56.38
21185;BME280;18176;49.502;11.754;2023-02-13T10:32:25;99016.69;;;12.32;54.67
21185;BME280;18176;49.502;11.754;2023-02-13T10:36:30;99021.31;;;12.65;54.22
21185;BME280;18176;49.502;11.754;2023-02-13T10:40:46;99013.41;;;12.72;53.02
21185;BME280;18176;49.502;11.754;2023-02-13T10:45:17;99011.63;;;12.58;53.56
21185;BME280;18176;49.502;11.754;2023-02-13T10:49:48;99016.97;;;12.58;53.07
21185;BME280;18176;49.502;11.754;2023-02-13T10:54:14;99006.25;;;13.00;53.30
21185;BME280;18176;49.502;11.754;2023-02-13T10:58:31;99002.38;;;12.75;52.86
21185;BME280;18176;49.502;11.754;2023-02-13T11:02:33;98998.25;;;13.28;52.42
21185;BME280;18176;49.502;11.754;2023-02-13T11:06:39;98995.19;;;13.72;51.20
21185;BME280;18176;49.502;11.754;2023-02-13T11:10:41;99003.25;;;13.98;50.06
21185;BME280;18176;49.502;11.754;2023-02-13T11:14:54;98991.13;;;13.89;49.58
21185;BME280;18176;49.502;11.754;2023-02-13T11:18:55;98996.53;;;14.15;49.49
21185;BME280;18176;49.502;11.754;2023-02-13T11:23:16;99000.72;;;14.63;49.02
21185;BME280;18176;49.502;11.754;2023-02-13T11:27:23;99000.63;;;14.11;48.23
21185;BME280;18176;49.502;11.754;2023-02-13T11:31:31;99007.56;;;13.99;49.16
21185;BME280;18176;49.502;11.754;2023-02-13T11:35:35;98994.34;;;13.65;48.76
21185;BME280;18176;49.502;11.754;2023-02-13T11:39:36;99005.53;;;14.01;49.05
21185;BME280;18176;49.502;11.754;2023-02-13T11:43:43;99002.25;;;13.99;49.04
21185;BME280;18176;49.502;11.754;2023-02-13T11:47:48;98994.34;;;13.65;47.64
21185;BME280;18176;49.502;11.754;2023-02-13T11:51:52;98997.22;;;13.70;47.46
21185;BME280;18176;49.502;11.754;2023-02-13T11:56:12;98993.59;;;13.36;47.49
21185;BME280;18176;49.502;11.754;2023-02-13T12:00:31;98990.75;;;13.92;46.76
21185;BME280;18176;49.502;11.754;2023-02-13T12:04:37;98986.56;;;13.70;45.96
21185;BME280;18176;49.502;11.754;2023-02-13T12:08:43;98986.75;;;14.35;45.78
21185;BME280;18176;49.502;11.754;2023-02-13T12:12:53;98984.31;;;14.80;44.04
21185;BME280;18176;49.502;11.754;2023-02-13T12:16:59;98944.88;;;14.62;44.62
21185;BME280;18176;49.502;11.754;2023-02-13T12:21:19;98959.03;;;14.89;44.46
21185;BME280;18176;49.502;11.754;2023-02-13T12:25:58;98955.16;;;15.99;42.64
21185;BME280;18176;49.502;11.754;2023-02-13T12:30:35;98949.28;;;17.69;39.86
21185;BME280;18176;49.502;11.754;2023-02-13T12:35:12;98941.28;;;19.84;37.21
21185;BME280;18176;49.502;11.754;2023-02-13T12:39:27;98940.25;;;20.96;34.47
21185;BME280;18176;49.502;11.754;2023-02-13T12:48:34;98940.25;;;18.11;37.89
21185;BME280;18176;49.502;11.754;2023-02-13T12:52:51;98932.31;;;17.02;38.87
21185;BME280;18176;49.502;11.754;2023-02-13T12:57:17;98937.50;;;16.54;40.25
21185;BME280;18176;49.502;11.754;2023-02-13T13:01:58;98924.31;;;15.97;41.91
21185;BME280;18176;49.502;11.754;2023-02-13T13:06:31;98928.75;;;16.41;41.19
21185;BME280;18176;49.502;11.754;2023-02-13T13:10:49;98929.94;;;16.94;40.63
21185;BME280;18176;49.502;11.754;2023-02-13T13:15:05;98915.94;;;17.94;39.32
21185;BME280;18176;49.502;11.754;2023-02-13T13:19:22;98916.22;;;17.75;38.85
21185;BME280;18176;49.502;11.754;2023-02-13T13:23:32;98924.56;;;16.76;40.12
21185;BME280;18176;49.502;11.754;2023-02-13T13:27:42;98918.31;;;17.54;39.20
21185;BME280;18176;49.502;11.754;2023-02-13T13:31:51;98913.75;;;16.08;41.38
21185;BME280;18176;49.502;11.754;2023-02-13T13:36:04;98901.56;;;16.44;41.69
21185;BME280;18176;49.502;11.754;2023-02-13T13:40:27;98909.84;;;18.40;37.67
21185;BME280;18176;49.502;11.754;2023-02-13T13:45:02;98903.69;;;18.98;36.82
21185;BME280;18176;49.502;11.754;2023-02-13T13:49:28;98897.16;;;18.93;36.33
21185;BME280;18176;49.502;11.754;2023-02-13T13:53:34;98894.84;;;18.62;36.97
21185;BME280;18176;49.502;11.754;2023-02-13T13:57:58;98893.63;;;19.05;36.17
21185;BME280;18176;49.502;11.754;2023-02-13T14:02:43;98899.88;;;18.06;37.73
21185;BME280;18176;49.502;11.754;2023-02-13T14:07:22;98902.50;;;17.94;37.52
21185;BME280;18176;49.502;11.754;2023-02-13T14:11:37;98899.28;;;17.26;38.79
21185;BME280;18176;49.502;11.754;2023-02-13T14:15:51;98907.88;;;16.49;39.69
21185;BME280;18176;49.502;11.754;2023-02-13T14:19:52;98901.63;;;16.62;40.23
21185;BME280;18176;49.502;11.754;2023-02-13T14:23:58;98895.72;;;17.14;38.77
21185;BME280;18176;49.502;11.754;2023-02-13T14:28:03;98897.78;;;17.12;38.96
21185;BME280;18176;49.502;11.754;2023-02-13T14:32:22;98898.06;;;16.86;39.39
21185;BME280;18176;49.502;11.754;2023-02-13T14:36:29;98901.66;;;16.98;39.57
21185;BME280;18176;49.502;11.754;2023-02-13T14:40:45;98895.78;;;17.74;38.41
21185;BME280;18176;49.502;11.754;2023-02-13T14:44:54;98897.28;;;16.11;40.52
21185;BME280;18176;49.502;11.754;2023-02-13T14:49:01;98893.91;;;15.91;41.21
21185;BME280;18176;49.502;11.754;2023-02-13T14:53:16;98889.81;;;15.89;41.59
21185;BME280;18176;49.502;11.754;2023-02-13T14:57:26;98885.09;;;16.65;40.67
21185;BME280;18176;49.502;11.754;2023-02-13T15:01:31;98891.84;;;16.92;40.21
21185;BME280;18176;49.502;11.754;2023-02-13T15:05:34;98891.34;;;16.59;40.19
21185;BME280;18176;49.502;11.754;2023-02-13T15:09:39;98887.31;;;16.18;40.77
21185;BME280;18176;49.502;11.754;2023-02-13T15:13:43;98878.22;;;16.01;41.37
21185;BME280;18176;49.502;11.754;2023-02-13T15:17:43;98877.34;;;16.07;41.22
21185;BME280;18176;49.502;11.754;2023-02-13T15:21:52;98855.78;;;16.02;41.41
21185;BME280;18176;49.502;11.754;2023-02-13T15:25:58;98877.25;;;15.89;41.37
21185;BME280;18176;49.502;11.754;2023-02-13T15:30:18;98880.63;;;15.34;42.52
21185;BME280;18176;49.502;11.754;2023-02-13T15:34:24;98884.75;;;15.30;42.76
21185;BME280;18176;49.502;11.754;2023-02-13T15:38:28;98877.88;;;15.09;42.93
21185;BME280;18176;49.502;11.754;2023-02-13T15:42:28;98873.06;;;14.60;43.98
21185;BME280;18176;49.502;11.754;2023-02-13T15:46:35;98865.91;;;14.15;45.16
21185;BME280;18176;49.502;11.754;2023-02-13T15:50:36;98865.47;;;13.79;46.23
21185;BME280;18176;49.502;11.754;2023-02-13T15:54:49;98869.00;;;13.25;47.20
21185;BME280;18176;49.502;11.754;2023-02-13T15:58:51;98866.09;;;12.73;48.76
21185;BME280;18176;49.502;11.754;2023-02-13T16:02:57;98864.34;;;12.93;48.74
21185;BME280;18176;49.502;11.754;2023-02-13T16:07:00;98868.97;;;12.85;48.67
21185;BME280;18176;49.502;11.754;2023-02-13T16:11:23;98867.06;;;12.38;49.78
21185;BME280;18176;49.502;11.754;2023-02-13T16:15:29;98877.72;;;11.89;51.04
21185;BME280;18176;49.502;11.754;2023-02-13T16:19:56;98889.16;;;11.54;52.28
21185;BME280;18176;49.502;11.754;2023-02-13T16:24:01;98875.75;;;11.05;52.83
21185;BME280;18176;49.502;11.754;2023-02-13T16:28:15;98868.81;;;10.60;54.10
21185;BME280;18176;49.502;11.754;2023-02-13T16:32:26;98873.81;;;10.26;55.60
21185;BME280;18176;49.502;11.754;2023-02-13T16:36:33;98888.16;;;9.94;57.24
21185;BME280;18176;49.502;11.754;2023-02-13T16:40:39;98881.84;;;9.72;57.70
21185;BME280;18176;49.502;11.754;2023-02-13T16:44:40;98898.97;;;9.62;58.27
21185;BME280;18176;49.502;11.754;2023-02-13T16:48:41;98902.78;;;9.29;59.17
21185;BME280;18176;49.502;11.754;2023-02-13T16:52:44;98914.34;;;8.97;60.32
21185;BME280;18176;49.502;11.754;2023-02-13T16:56:48;98900.22;;;8.74;61.43
21185;BME280;18176;49.502;11.754;2023-02-13T17:00:49;98909.34;;;8.55;61.99
21185;BME280;18176;49.502;11.754;2023-02-13T17:04:54;98904.44;;;8.36;63.08
21185;BME280;18176;49.502;11.754;2023-02-13T17:08:58;98916.63;;;8.21;64.15
21185;BME280;18176;49.502;11.754;2023-02-13T17:13:01;98914.47;;;8.08;64.86
21185;BME280;18176;49.502;11.754;2023-02-13T17:17:12;98917.31;;;7.99;64.97
21185;BME280;18176;49.502;11.754;2023-02-13T17:21:13;98922.91;;;7.96;65.32
21185;BME280;18176;49.502;11.754;2023-02-13T17:25:20;98937.44;;;7.92;65.61
21185;BME280;18176;49.502;11.754;2023-02-13T17:29:21;98933.81;;;7.85;65.89
21185;BME280;18176;49.502;11.754;2023-02-13T17:33:24;98930.81;;;7.88;65.53
21185;BME280;18176;49.502;11.754;2023-02-13T17:37:27;98938.72;;;7.63;66.03
21185;BME280;18176;49.502;11.754;2023-02-13T17:41:31;98937.34;;;7.43;66.55
21185;BME280;18176;49.502;11.754;2023-02-13T17:45:34;98938.59;;;7.23;67.14
21185;BME280;18176;49.502;11.754;2023-02-13T17:49:36;98930.31;;;7.10;67.50
21185;BME280;18176;49.502;11.754;2023-02-13T17:53:36;98933.78;;;7.11;69.04
21185;BME280;18176;49.502;11.754;2023-02-13T17:57:39;98931.25;;;7.01;68.63
21185;BME280;18176;49.502;11.754;2023-02-13T18:01:39;98925.19;;;6.75;69.47
21185;BME280;18176;49.502;11.754;2023-02-13T18:05:41;98930.06;;;6.62;70.17
21185;BME280;18176;49.502;11.754;2023-02-13T18:09:42;98925.19;;;6.75;70.06
21185;BME280;18176;49.502;11.754;2023-02-13T18:13:46;98925.34;;;6.65;69.52
21185;BME280;18176;49.502;11.754;2023-02-13T18:17:47;98927.53;;;6.78;69.44
21185;BME280;18176;49.502;11.754;2023-02-13T18:21:48;98923.25;;;6.77;69.69
21185;BME280;18176;49.502;11.754;2023-02-13T18:25:50;98924.78;;;6.87;69.69
21185;BME280;18176;49.502;11.754;2023-02-13T18:29:53;98920.22;;;6.64;69.55
21185;BME280;18176;49.502;11.754;2023-02-13T18:33:56;98911.53;;;6.46;69.42
21185;BME280;18176;49.502;11.754;2023-02-13T18:37:59;98910.31;;;6.32;69.30
21185;BME280;18176;49.502;11.754;2023-02-13T18:42:00;98921.41;;;6.18;69.33
21185;BME280;18176;49.502;11.754;2023-02-13T18:46:04;98931.28;;;5.98;70.27
21185;BME280;18176;49.502;11.754;2023-02-13T18:50:09;98936.09;;;5.85;69.99
21185;BME280;18176;49.502;11.754;2023-02-13T18:54:10;98933.72;;;5.64;70.49
21185;BME280;18176;49.502;11.754;2023-02-13T18:58:10;98938.19;;;5.64;70.76
21185;BME280;18176;49.502;11.754;2023-02-13T19:02:13;98939.38;;;5.52;70.62
21185;BME280;18176;49.502;11.754;2023-02-13T19:06:17;98946.47;;;5.24;70.77
21185;BME280;18176;49.502;11.754;2023-02-13T19:10:18;98943.69;;;5.26;70.98
21185;BME280;18176;49.502;11.754;2023-02-13T19:14:19;98941.56;;;5.02;70.66
21185;BME280;18176;49.502;11.754;2023-02-13T19:18:24;98952.72;;;4.86;70.75
21185;BME280;18176;49.502;11.754;2023-02-13T19:22:25;98959.72;;;4.59;71.25
21185;BME280;18176;49.502;11.754;2023-02-13T19:26:27;98953.97;;;4.36;72.39
21185;BME280;18176;49.502;11.754;2023-02-13T19:30:27;98955.25;;;4.03;73.87
21185;BME280;18176;49.502;11.754;2023-02-13T19:34:31;98936.47;;;4.08;73.74
21185;BME280;18176;49.502;11.754;2023-02-13T19:38:31;98924.34;;;4.07;73.23
21185;BME280;18176;49.502;11.754;2023-02-13T19:42:32;98936.38;;;4.00;73.89
21185;BME280;18176;49.502;11.754;2023-02-13T19:46:34;98935.25;;;3.93;74.77
21185;BME280;18176;49.502;11.754;2023-02-13T19:50:38;98928.34;;;3.92;74.38
21185;BME280;18176;49.502;11.754;2023-02-13T19:54:40;98928.09;;;3.76;75.43
21185;BME280;18176;49.502;11.754;2023-02-13T19:58:42;98904.91;;;3.62;74.94
21185;BME280;18176;49.502;11.754;2023-02-13T20:02:42;98932.63;;;3.74;74.76
21185;BME280;18176;49.502;11.754;2023-02-13T20:06:46;98938.84;;;3.63;75.07
21185;BME280;18176;49.502;11.754;2023-02-13T20:10:46;98934.44;;;3.54;74.84
21185;BME280;18176;49.502;11.754;2023-02-13T20:14:47;98934.41;;;3.44;74.96
21185;BME280;18176;49.502;11.754;2023-02-13T20:18:48;98941.59;;;3.42;75.48
21185;BME280;18176;49.502;11.754;2023-02-13T20:22:51;98938.81;;;3.34;75.45
21185;BME280;18176;49.502;11.754;2023-02-13T20:26:52;98937.66;;;3.18;76.20
21185;BME280;18176;49.502;11.754;2023-02-13T20:30:55;98931.44;;;3.09;76.08
21185;BME280;18176;49.502;11.754;2023-02-13T20:34:57;98940.97;;;3.10;76.09
21185;BME280;18176;49.502;11.754;2023-02-13T20:39:03;98932.69;;;3.05;76.43
21185;BME280;18176;49.502;11.754;2023-02-13T20:43:04;98927.31;;;3.07;75.90
21185;BME280;18176;49.502;11.754;2023-02-13T20:47:06;98934.28;;;2.87;77.33
21185;BME280;18176;49.502;11.754;2023-02-13T20:51:10;98933.41;;;2.77;76.70
21185;BME280;18176;49.502;11.754;2023-02-13T20:55:15;98916.31;;;2.73;76.57
21185;BME280;18176;49.502;11.754;2023-02-13T20:59:16;98919.03;;;2.62;77.13
21185;BME280;18176;49.502;11.754;2023-02-13T21:03:17;98921.22;;;2.57;77.29
21185;BME280;18176;49.502;11.754;2023-02-13T21:07:17;98917.22;;;2.53;77.87
21185;BME280;18176;49.502;11.754;2023-02-13T21:11:21;98925.06;;;2.53;77.38
21185;BME280;18176;49.502;11.754;2023-02-13T21:15:22;98930.94;;;2.45;77.54
21185;BME280;18176;49.502;11.754;2023-02-13T21:19:23;98922.13;;;2.46;77.56
21185;BME280;18176;49.502;11.754;2023-02-13T21:23:24;98915.03;;;2.37;77.49
21185;BME280;18176;49.502;11.754;2023-02-13T21:27:28;98924.16;;;2.43;77.24
21185;BME280;18176;49.502;11.754;2023-02-13T21:31:32;98927.75;;;2.42;77.01
21185;BME280;18176;49.502;11.754;2023-02-13T21:35:33;98935.09;;;2.27;77.10
21185;BME280;18176;49.502;11.754;2023-02-13T21:39:36;98926.50;;;2.16;77.27
21185;BME280;18176;49.502;11.754;2023-02-13T21:43:40;98930.06;;;2.14;76.93
21185;BME280;18176;49.502;11.754;2023-02-13T21:47:43;98926.75;;;1.92;77.84
21185;BME280;18176;49.502;11.754;2023-02-13T21:51:45;98907.13;;;1.97;77.39
21185;BME280;18176;49.502;11.754;2023-02-13T21:55:45;98921.34;;;2.04;77.60
21185;BME280;18176;49.502;11.754;2023-02-13T21:59:48;98918.97;;;2.01;77.07